sensor_id;sensor_type;location;lat;lon;timestamp;temperature;humidity
11824;DHT22;5969;50.780;7.726;2023-03-14T00:02:01;10.40;99.90
11824;DHT22;5969;50.780;7.726;2023-03-14T00:04:27;10.40;99.90
11824;DHT22;5969;50.780;7.726;2023-03-14T00:06:54;10.60;99.90
11824;DHT22;5969;50.780;7.726;2023-03-14T00:09:21;10.70;99.90
11824;DHT22;5969;50.780;7.726;2023-03-14T00:11:48;10.60;99.90
11824;DHT22;5969;50.780;7.726;2023-03-14T00:14:15;10.60;99.90
11824;DHT22;5969;50.780;7.726;2023-03-14T00:16:43;10.50;99.90
11824;DHT22;5969;50.780;7.726;2023-03-14T00:19:13;10.40;99.90
11824;DHT22;5969;50.780;7.726;2023-03-14T00:21:40;10.40;99.90
11824;DHT22;5969;50.780;7.726;2023-03-14T00:24:07;10.50;99.90
11824;DHT22;5969;50.780;7.726;2023-03-14T00:26:34;10.50;99.90
11824;DHT22;5969;50.780;7.726;2023-03-14T00:29:01;10.60;99.90
11824;DHT22;5969;50.780;7.726;2023-03-14T00:31:28;10.50;99.90
11824;DHT22;5969;50.780;7.726;2023-03-14T00:33:55;10.50;99.90
11824;DHT22;5969;50.780;7.726;2023-03-14T00:36:23;10.50;99.90
11824;DHT22;5969;50.780;7.726;2023-03-14T00:38:51;10.50;99.90
11824;DHT22;5969;50.780;7.726;2023-03-14T00:41:19;10.50;99.90
11824;DHT22;5969;50.780;7.726;2023-03-14T00:43:47;10.50;99.90
11824;DHT22;5969;50.780;7.726;2023-03-14T00:46:15;10.50;99.90
11824;DHT22;5969;50.780;7.726;2023-03-14T00:48:42;10.50;99.90
11824;DHT22;5969;50.780;7.726;2023-03-14T00:51:10;10.40;99.90
11824;DHT22;5969;50.780;7.726;2023-03-14T00:53:41;10.40;99.90
11824;DHT22;5969;50.780;7.726;2023-03-14T00:56:09;10.30;99.90
11824;DHT22;5969;50.780;7.726;2023-03-14T00:58:36;10.10;99.90
11824;DHT22;5969;50.780;7.726;2023-03-14T01:01:08;10.10;99.90
11824;DHT22;5969;50.780;7.726;2023-03-14T01:03:35;10.10;99.90
11824;DHT22;5969;50.780;7.726;2023-03-14T01:06:10;10.10;99.90
11824;DHT22;5969;50.780;7.726;2023-03-14T01:08:37;10.00;99.90
11824;DHT22;5969;50.780;7.726;2023-03-14T01:11:10;10.10;99.90
11824;DHT22;5969;50.780;7.726;2023-03-14T01:13:38;10.10;99.90
11824;DHT22;5969;50.780;7.726;2023-03-14T01:16:07;10.00;99.90
11824;DHT22;5969;50.780;7.726;2023-03-14T01:18:35;10.10;99.90
11824;DHT22;5969;50.780;7.726;2023-03-14T01:21:02;10.20;99.90
11824;DHT22;5969;50.780;7.726;2023-03-14T01:23:29;10.20;99.90
11824;DHT22;5969;50.780;7.726;2023-03-14T01:25:56;10.10;99.90
11824;DHT22;5969;50.780;7.726;2023-03-14T01:28:24;10.20;99.90
11824;DHT22;5969;50.780;7.726;2023-03-14T01:30:51;10.20;99.90
11824;DHT22;5969;50.780;7.726;2023-03-14T01:33:18;10.20;99.90
11824;DHT22;5969;50.780;7.726;2023-03-14T01:35:45;10.10;99.90
11824;DHT22;5969;50.780;7.726;2023-03-14T01:38:12;10.10;99.90
11824;DHT22;5969;50.780;7.726;2023-03-14T01:40:43;10.10;99.90
11824;DHT22;5969;50.780;7.726;2023-03-14T01:43:14;10.10;99.90
11824;DHT22;5969;50.780;7.726;2023-03-14T01:46:24;10.00;99.90
11824;DHT22;5969;50.780;7.726;2023-03-14T01:48:59;10.00;99.90
11824;DHT22;5969;50.780;7.726;2023-03-14T01:51:31;10.10;99.90
11824;DHT22;5969;50.780;7.726;2023-03-14T01:54:04;10.10;99.90
11824;DHT22;5969;50.780;7.726;2023-03-14T01:56:32;10.20;99.90
11824;DHT22;5969;50.780;7.726;2023-03-14T01:59:01;10.20;99.90
11824;DHT22;5969;50.780;7.726;2023-03-14T02:01:32;10.20;99.90
11824;DHT22;5969;50.780;7.726;2023-03-14T02:04:01;10.20;99.90
11824;DHT22;5969;50.780;7.726;2023-03-14T02:06:34;10.20;99.90
11824;DHT22;5969;50.780;7.726;2023-03-14T02:09:03;10.30;99.90
11824;DHT22;5969;50.780;7.726;2023-03-14T02:11:30;10.20;99.90
11824;DHT22;5969;50.780;7.726;2023-03-14T02:13:58;10.30;99.90
11824;DHT22;5969;50.780;7.726;2023-03-14T02:16:25;10.20;99.90
11824;DHT22;5969;50.780;7.726;2023-03-14T02:18:54;10.10;99.90
11824;DHT22;5969;50.780;7.726;2023-03-14T02:21:24;10.00;99.90
11824;DHT22;5969;50.780;7.726;2023-03-14T02:24:02;9.80;99.90
11824;DHT22;5969;50.780;7.726;2023-03-14T02:26:38;9.70;99.90
11824;DHT22;5969;50.780;7.726;2023-03-14T02:29:08;9.70;99.90
11824;DHT22;5969;50.780;7.726;2023-03-14T02:31:35;9.50;99.90
11824;DHT22;5969;50.780;7.726;2023-03-14T02:34:02;9.60;99.90
11824;DHT22;5969;50.780;7.726;2023-03-14T02:36:30;9.50;99.90
11824;DHT22;5969;50.780;7.726;2023-03-14T02:39:05;9.40;99.90
11824;DHT22;5969;50.780;7.726;2023-03-14T02:41:33;9.40;99.90
11824;DHT22;5969;50.780;7.726;2023-03-14T02:44:00;9.40;99.90
11824;DHT22;5969;50.780;7.726;2023-03-14T02:46:28;9.50;99.90
11824;DHT22;5969;50.780;7.726;2023-03-14T02:48:57;9.60;99.90
11824;DHT22;5969;50.780;7.726;2023-03-14T02:51:27;9.60;99.90
11824;DHT22;5969;50.780;7.726;2023-03-14T02:53:55;9.60;99.90
11824;DHT22;5969;50.780;7.726;2023-03-14T02:56:22;9.50;99.90
11824;DHT22;5969;50.780;7.726;2023-03-14T02:58:49;9.60;99.90
11824;DHT22;5969;50.780;7.726;2023-03-14T03:01:16;9.60;99.90
11824;DHT22;5969;50.780;7.726;2023-03-14T03:03:44;9.70;99.90
11824;DHT22;5969;50.780;7.726;2023-03-14T03:06:11;9.70;99.90
11824;DHT22;5969;50.780;7.726;2023-03-14T03:08:38;9.60;99.90
11824;DHT22;5969;50.780;7.726;2023-03-14T03:11:05;9.60;99.90
11824;DHT22;5969;50.780;7.726;2023-03-14T03:13:33;9.70;99.90
11824;DHT22;5969;50.780;7.726;2023-03-14T03:16:00;9.50;99.90
11824;DHT22;5969;50.780;7.726;2023-03-14T03:18:26;9.40;99.90
11824;DHT22;5969;50.780;7.726;2023-03-14T03:20:54;9.40;99.90
11824;DHT22;5969;50.780;7.726;2023-03-14T03:23:21;9.50;99.90
11824;DHT22;5969;50.780;7.726;2023-03-14T03:25:51;9.50;99.90
11824;DHT22;5969;50.780;7.726;2023-03-14T03:28:18;9.50;99.90
11824;DHT22;5969;50.780;7.726;2023-03-14T03:30:45;9.60;99.90
11824;DHT22;5969;50.780;7.726;2023-03-14T03:33:12;9.60;99.90
11824;DHT22;5969;50.780;7.726;2023-03-14T03:35:43;9.50;99.90
11824;DHT22;5969;50.780;7.726;2023-03-14T03:38:12;9.50;99.90
11824;DHT22;5969;50.780;7.726;2023-03-14T03:40:39;9.60;99.90
11824;DHT22;5969;50.780;7.726;2023-03-14T03:43:06;9.50;99.90
11824;DHT22;5969;50.780;7.726;2023-03-14T03:45:33;9.60;99.90
11824;DHT22;5969;50.780;7.726;2023-03-14T03:48:00;9.60;99.90
11824;DHT22;5969;50.780;7.726;2023-03-14T03:50:27;9.70;99.90
11824;DHT22;5969;50.780;7.726;2023-03-14T03:52:54;9.70;99.90
11824;DHT22;5969;50.780;7.726;2023-03-14T03:55:22;9.80;99.90
11824;DHT22;5969;50.780;7.726;2023-03-14T03:57:51;10.00;99.90
11824;DHT22;5969;50.780;7.726;2023-03-14T04:00:18;10.00;99.90
11824;DHT22;5969;50.780;7.726;2023-03-14T04:02:45;9.80;99.90
11824;DHT22;5969;50.780;7.726;2023-03-14T04:05:12;9.80;99.90
11824;DHT22;5969;50.780;7.726;2023-03-14T04:07:38;9.80;99.90
11824;DHT22;5969;50.780;7.726;2023-03-14T04:10:06;9.70;99.90
11824;DHT22;5969;50.780;7.726;2023-03-14T04:12:34;9.70;99.90
11824;DHT22;5969;50.780;7.726;2023-03-14T04:15:00;9.80;99.90
11824;DHT22;5969;50.780;7.726;2023-03-14T04:17:27;9.70;99.90
11824;DHT22;5969;50.780;7.726;2023-03-14T04:19:54;9.70;99.90
11824;DHT22;5969;50.780;7.726;2023-03-14T04:22:21;9.80;99.90
11824;DHT22;5969;50.780;7.726;2023-03-14T04:24:48;9.80;99.90
11824;DHT22;5969;50.780;7.726;2023-03-14T04:27:15;9.80;99.90
11824;DHT22;5969;50.780;7.726;2023-03-14T04:29:43;9.80;99.90
11824;DHT22;5969;50.780;7.726;2023-03-14T04:32:10;9.80;99.90
11824;DHT22;5969;50.780;7.726;2023-03-14T04:34:37;9.80;99.90
11824;DHT22;5969;50.780;7.726;2023-03-14T04:37:04;9.80;99.90
11824;DHT22;5969;50.780;7.726;2023-03-14T04:39:31;9.90;99.90
11824;DHT22;5969;50.780;7.726;2023-03-14T04:41:58;9.90;99.90
11824;DHT22;5969;50.780;7.726;2023-03-14T04:44:26;9.80;99.90
11824;DHT22;5969;50.780;7.726;2023-03-14T04:46:54;9.80;99.90
11824;DHT22;5969;50.780;7.726;2023-03-14T04:49:21;9.90;99.90
11824;DHT22;5969;50.780;7.726;2023-03-14T04:51:48;9.90;99.90
11824;DHT22;5969;50.780;7.726;2023-03-14T04:54:16;9.90;99.90
11824;DHT22;5969;50.780;7.726;2023-03-14T04:56:43;9.90;99.90
11824;DHT22;5969;50.780;7.726;2023-03-14T04:59:10;9.90;99.90
11824;DHT22;5969;50.780;7.726;2023-03-14T05:01:37;9.90;99.90
11824;DHT22;5969;50.780;7.726;2023-03-14T05:04:05;9.90;99.90
11824;DHT22;5969;50.780;7.726;2023-03-14T05:06:32;9.90;99.90
11824;DHT22;5969;50.780;7.726;2023-03-14T05:08:59;10.00;99.90
11824;DHT22;5969;50.780;7.726;2023-03-14T05:11:27;9.80;99.90
11824;DHT22;5969;50.780;7.726;2023-03-14T05:13:54;9.80;99.90
11824;DHT22;5969;50.780;7.726;2023-03-14T05:16:21;9.90;99.90
11824;DHT22;5969;50.780;7.726;2023-03-14T05:18:57;9.80;99.90
11824;DHT22;5969;50.780;7.726;2023-03-14T05:21:26;9.70;99.90
11824;DHT22;5969;50.780;7.726;2023-03-14T05:23:56;9.80;99.90
11824;DHT22;5969;50.780;7.726;2023-03-14T05:26:29;9.70;99.90
11824;DHT22;5969;50.780;7.726;2023-03-14T05:28:56;9.70;99.90
11824;DHT22;5969;50.780;7.726;2023-03-14T05:31:22;9.80;99.90
11824;DHT22;5969;50.780;7.726;2023-03-14T05:33:49;9.70;99.90
11824;DHT22;5969;50.780;7.726;2023-03-14T05:36:16;9.60;99.90
11824;DHT22;5969;50.780;7.726;2023-03-14T05:38:48;9.60;99.90
11824;DHT22;5969;50.780;7.726;2023-03-14T05:41:15;9.60;99.90
11824;DHT22;5969;50.780;7.726;2023-03-14T05:43:42;9.60;99.90
11824;DHT22;5969;50.780;7.726;2023-03-14T05:46:09;9.60;99.90
11824;DHT22;5969;50.780;7.726;2023-03-14T05:48:40;9.80;99.90
11824;DHT22;5969;50.780;7.726;2023-03-14T05:51:07;9.60;99.90
11824;DHT22;5969;50.780;7.726;2023-03-14T05:53:34;9.50;99.90
11824;DHT22;5969;50.780;7.726;2023-03-14T05:56:02;9.40;99.90
11824;DHT22;5969;50.780;7.726;2023-03-14T05:58:31;9.30;99.90
11824;DHT22;5969;50.780;7.726;2023-03-14T06:01:01;9.20;99.90
11824;DHT22;5969;50.780;7.726;2023-03-14T06:03:30;9.10;99.90
11824;DHT22;5969;50.780;7.726;2023-03-14T06:05:56;9.10;99.90
11824;DHT22;5969;50.780;7.726;2023-03-14T06:08:25;9.10;99.90
11824;DHT22;5969;50.780;7.726;2023-03-14T06:10:53;9.10;99.90
11824;DHT22;5969;50.780;7.726;2023-03-14T06:13:21;9.20;99.90
11824;DHT22;5969;50.780;7.726;2023-03-14T06:15:48;9.20;99.90
11824;DHT22;5969;50.780;7.726;2023-03-14T06:18:15;9.20;99.90
11824;DHT22;5969;50.780;7.726;2023-03-14T06:20:42;9.20;99.90
11824;DHT22;5969;50.780;7.726;2023-03-14T09:41:50;11.70;99.90
11824;DHT22;5969;50.780;7.726;2023-03-14T09:44:21;11.70;99.90
11824;DHT22;5969;50.780;7.726;2023-03-14T09:46:52;11.90;99.90
11824;DHT22;5969;50.780;7.726;2023-03-14T09:49:21;11.80;99.90
11824;DHT22;5969;50.780;7.726;2023-03-14T09:51:52;11.80;99.90
11824;DHT22;5969;50.780;7.726;2023-03-14T09:54:36;11.90;99.90
11824;DHT22;5969;50.780;7.726;2023-03-14T09:57:06;11.60;99.90
11824;DHT22;5969;50.780;7.726;2023-03-14T09:59:34;11.60;99.90
11824;DHT22;5969;50.780;7.726;2023-03-14T10:02:02;11.50;99.90
11824;DHT22;5969;50.780;7.726;2023-03-14T10:04:38;11.30;99.90
11824;DHT22;5969;50.780;7.726;2023-03-14T10:07:13;11.20;99.90
11824;DHT22;5969;50.780;7.726;2023-03-14T10:09:43;11.20;99.90
11824;DHT22;5969;50.780;7.726;2023-03-14T10:12:12;11.00;99.90
11824;DHT22;5969;50.780;7.726;2023-03-14T10:14:47;10.80;99.90
11824;DHT22;5969;50.780;7.726;2023-03-14T10:17:15;10.70;99.90
11824;DHT22;5969;50.780;7.726;2023-03-14T10:19:54;10.50;99.90
11824;DHT22;5969;50.780;7.726;2023-03-14T10:22:22;10.50;99.90
11824;DHT22;5969;50.780;7.726;2023-03-14T10:24:53;10.50;99.90
11824;DHT22;5969;50.780;7.726;2023-03-14T10:27:28;10.50;99.90
11824;DHT22;5969;50.780;7.726;2023-03-14T10:29:57;10.30;99.90
11824;DHT22;5969;50.780;7.726;2023-03-14T10:32:29;10.20;99.90
11824;DHT22;5969;50.780;7.726;2023-03-14T10:35:07;10.20;99.90
11824;DHT22;5969;50.780;7.726;2023-03-14T10:37:35;10.20;99.90
11824;DHT22;5969;50.780;7.726;2023-03-14T10:40:04;9.90;99.90
11824;DHT22;5969;50.780;7.726;2023-03-14T10:42:39;9.50;99.90
11824;DHT22;5969;50.780;7.726;2023-03-14T10:45:25;9.10;99.90
11824;DHT22;5969;50.780;7.726;2023-03-14T10:47:54;8.80;99.90
11824;DHT22;5969;50.780;7.726;2023-03-14T10:50:26;8.60;99.90
11824;DHT22;5969;50.780;7.726;2023-03-14T10:52:55;8.30;99.90
11824;DHT22;5969;50.780;7.726;2023-03-14T10:55:23;8.10;99.90
11824;DHT22;5969;50.780;7.726;2023-03-14T10:57:52;8.10;99.90
11824;DHT22;5969;50.780;7.726;2023-03-14T11:00:24;8.20;99.90
11824;DHT22;5969;50.780;7.726;2023-03-14T11:03:03;8.10;99.90
11824;DHT22;5969;50.780;7.726;2023-03-14T11:05:38;8.30;99.90
11824;DHT22;5969;50.780;7.726;2023-03-14T11:08:10;8.20;99.90
11824;DHT22;5969;50.780;7.726;2023-03-14T11:10:39;8.50;99.90
11824;DHT22;5969;50.780;7.726;2023-03-14T11:13:16;8.60;99.90
11824;DHT22;5969;50.780;7.726;2023-03-14T11:15:53;8.30;99.90
11824;DHT22;5969;50.780;7.726;2023-03-14T11:18:46;8.30;99.90
11824;DHT22;5969;50.780;7.726;2023-03-14T11:21:19;8.00;99.90
11824;DHT22;5969;50.780;7.726;2023-03-14T11:23:56;7.90;99.90
11824;DHT22;5969;50.780;7.726;2023-03-14T11:26:30;7.90;99.90
11824;DHT22;5969;50.780;7.726;2023-03-14T11:29:12;8.00;99.90
11824;DHT22;5969;50.780;7.726;2023-03-14T11:31:44;7.90;99.90
11824;DHT22;5969;50.780;7.726;2023-03-14T11:34:16;7.70;99.90
11824;DHT22;5969;50.780;7.726;2023-03-14T11:36:48;7.70;99.90
11824;DHT22;5969;50.780;7.726;2023-03-14T11:39:19;7.60;99.90
11824;DHT22;5969;50.780;7.726;2023-03-14T11:41:47;7.60;99.90
11824;DHT22;5969;50.780;7.726;2023-03-14T11:44:18;7.50;99.90
11824;DHT22;5969;50.780;7.726;2023-03-14T11:46:49;7.50;99.90
11824;DHT22;5969;50.780;7.726;2023-03-14T11:49:30;7.40;99.90
11824;DHT22;5969;50.780;7.726;2023-03-14T11:52:02;7.50;99.90
11824;DHT22;5969;50.780;7.726;2023-03-14T11:54:37;7.50;99.90
11824;DHT22;5969;50.780;7.726;2023-03-14T11:57:12;7.50;99.90
11824;DHT22;5969;50.780;7.726;2023-03-14T11:59:48;7.50;99.90
11824;DHT22;5969;50.780;7.726;2023-03-14T12:02:21;7.60;99.90
11824;DHT22;5969;50.780;7.726;2023-03-14T12:04:56;7.70;99.90
11824;DHT22;5969;50.780;7.726;2023-03-14T12:07:41;7.90;99.90
11824;DHT22;5969;50.780;7.726;2023-03-14T12:10:11;7.90;99.90
11824;DHT22;5969;50.780;7.726;2023-03-14T12:12:40;7.90;99.90
11824;DHT22;5969;50.780;7.726;2023-03-14T12:15:23;8.10;99.90
11824;DHT22;5969;50.780;7.726;2023-03-14T12:17:54;8.20;99.90
11824;DHT22;5969;50.780;7.726;2023-03-14T12:20:27;8.40;99.90
11824;DHT22;5969;50.780;7.726;2023-03-14T12:23:03;8.80;99.90
11824;DHT22;5969;50.780;7.726;2023-03-14T12:25:32;9.10;99.90
11824;DHT22;5969;50.780;7.726;2023-03-14T12:28:14;9.30;99.90
11824;DHT22;5969;50.780;7.726;2023-03-14T12:30:44;9.10;99.90
11824;DHT22;5969;50.780;7.726;2023-03-14T12:33:19;9.50;99.90
11824;DHT22;5969;50.780;7.726;2023-03-14T12:35:47;9.40;99.90
11824;DHT22;5969;50.780;7.726;2023-03-14T12:38:18;9.10;99.90
11824;DHT22;5969;50.780;7.726;2023-03-14T12:40:57;8.70;99.90
11824;DHT22;5969;50.780;7.726;2023-03-14T12:43:27;8.10;99.90
11824;DHT22;5969;50.780;7.726;2023-03-14T12:46:19;8.00;99.90
11824;DHT22;5969;50.780;7.726;2023-03-14T12:48:48;8.00;99.90
11824;DHT22;5969;50.780;7.726;2023-03-14T12:51:17;7.80;99.90
11824;DHT22;5969;50.780;7.726;2023-03-14T12:54:08;7.50;99.90
11824;DHT22;5969;50.780;7.726;2023-03-14T12:59:38;7.20;99.90
11824;DHT22;5969;50.780;7.726;2023-03-14T13:02:26;7.20;99.90
11824;DHT22;5969;50.780;7.726;2023-03-14T13:05:01;7.10;99.90
11824;DHT22;5969;50.780;7.726;2023-03-14T13:08:06;7.10;99.90
11824;DHT22;5969;50.780;7.726;2023-03-14T13:10:49;7.20;99.90
11824;DHT22;5969;50.780;7.726;2023-03-14T13:13:20;7.40;99.90
11824;DHT22;5969;50.780;7.726;2023-03-14T13:15:49;7.60;99.90
11824;DHT22;5969;50.780;7.726;2023-03-14T13:18:27;7.60;99.90
11824;DHT22;5969;50.780;7.726;2023-03-14T13:20:58;7.50;99.90
11824;DHT22;5969;50.780;7.726;2023-03-14T13:23:29;7.40;99.90
11824;DHT22;5969;50.780;7.726;2023-03-14T13:25:58;7.30;99.90
11824;DHT22;5969;50.780;7.726;2023-03-14T13:28:30;7.30;99.90
11824;DHT22;5969;50.780;7.726;2023-03-14T13:31:15;7.20;99.90
11824;DHT22;5969;50.780;7.726;2023-03-14T13:34:02;7.00;99.90
11824;DHT22;5969;50.780;7.726;2023-03-14T13:37:15;6.70;99.90
11824;DHT22;5969;50.780;7.726;2023-03-14T13:39:50;6.80;99.90
11824;DHT22;5969;50.780;7.726;2023-03-14T13:42:24;6.80;99.90
11824;DHT22;5969;50.780;7.726;2023-03-14T13:48:17;6.50;99.90
11824;DHT22;5969;50.780;7.726;2023-03-14T13:50:49;6.50;99.90
11824;DHT22;5969;50.780;7.726;2023-03-14T13:53:16;6.50;99.90
11824;DHT22;5969;50.780;7.726;2023-03-14T13:55:46;6.60;99.90
11824;DHT22;5969;50.780;7.726;2023-03-14T13:58:21;6.60;99.90
11824;DHT22;5969;50.780;7.726;2023-03-14T14:00:58;6.40;99.90
11824;DHT22;5969;50.780;7.726;2023-03-14T14:03:27;6.40;99.90
11824;DHT22;5969;50.780;7.726;2023-03-14T14:05:56;6.40;99.90
11824;DHT22;5969;50.780;7.726;2023-03-14T14:08:23;6.30;99.90
11824;DHT22;5969;50.780;7.726;2023-03-14T14:10:55;6.40;99.90
11824;DHT22;5969;50.780;7.726;2023-03-14T14:13:27;6.40;99.90
11824;DHT22;5969;50.780;7.726;2023-03-14T14:15:58;6.40;99.90
11824;DHT22;5969;50.780;7.726;2023-03-14T14:18:27;6.70;99.90
11824;DHT22;5969;50.780;7.726;2023-03-14T14:20:55;6.90;99.90
11824;DHT22;5969;50.780;7.726;2023-03-14T14:23:25;7.30;99.90
11824;DHT22;5969;50.780;7.726;2023-03-14T14:26:00;8.00;99.90
11824;DHT22;5969;50.780;7.726;2023-03-14T14:28:29;8.70;99.90
11824;DHT22;5969;50.780;7.726;2023-03-14T14:31:05;8.90;99.90
11824;DHT22;5969;50.780;7.726;2023-03-14T14:33:53;8.60;99.90
11824;DHT22;5969;50.780;7.726;2023-03-14T14:36:23;8.50;99.90
11824;DHT22;5969;50.780;7.726;2023-03-14T14:38:56;8.20;99.90
11824;DHT22;5969;50.780;7.726;2023-03-14T14:41:29;8.00;99.90
11824;DHT22;5969;50.780;7.726;2023-03-14T14:43:58;7.90;99.90
11824;DHT22;5969;50.780;7.726;2023-03-14T14:46:32;7.70;99.90
11824;DHT22;5969;50.780;7.726;2023-03-14T14:49:14;7.70;99.90
11824;DHT22;5969;50.780;7.726;2023-03-14T14:51:49;7.60;99.90
11824;DHT22;5969;50.780;7.726;2023-03-14T14:54:18;7.20;99.90
11824;DHT22;5969;50.780;7.726;2023-03-14T14:56:48;7.20;99.90
11824;DHT22;5969;50.780;7.726;2023-03-14T14:59:22;7.00;99.90
11824;DHT22;5969;50.780;7.726;2023-03-14T15:01:50;6.90;99.90
11824;DHT22;5969;50.780;7.726;2023-03-14T15:04:21;6.80;99.90
11824;DHT22;5969;50.780;7.726;2023-03-14T15:06:54;6.90;99.90
11824;DHT22;5969;50.780;7.726;2023-03-14T15:13:08;7.10;99.90
11824;DHT22;5969;50.780;7.726;2023-03-14T15:15:56;7.20;99.90
11824;DHT22;5969;50.780;7.726;2023-03-14T15:18:29;7.10;99.90
11824;DHT22;5969;50.780;7.726;2023-03-14T15:20:59;6.90;99.90
11824;DHT22;5969;50.780;7.726;2023-03-14T15:37:03;6.70;99.90
11824;DHT22;5969;50.780;7.726;2023-03-14T15:40:04;6.80;99.90
11824;DHT22;5969;50.780;7.726;2023-03-14T15:43:03;6.90;99.90
11824;DHT22;5969;50.780;7.726;2023-03-14T15:45:30;6.80;99.90
11824;DHT22;5969;50.780;7.726;2023-03-14T15:47:56;6.80;99.90
11824;DHT22;5969;50.780;7.726;2023-03-14T15:50:23;6.80;99.90
11824;DHT22;5969;50.780;7.726;2023-03-14T15:52:53;6.60;99.90
11824;DHT22;5969;50.780;7.726;2023-03-14T15:55:21;6.50;99.90
11824;DHT22;5969;50.780;7.726;2023-03-14T15:57:48;6.30;99.90
11824;DHT22;5969;50.780;7.726;2023-03-14T16:00:18;6.30;99.90
11824;DHT22;5969;50.780;7.726;2023-03-14T16:02:48;6.30;99.90
11824;DHT22;5969;50.780;7.726;2023-03-14T16:05:15;6.40;99.90
11824;DHT22;5969;50.780;7.726;2023-03-14T16:07:43;6.30;99.90
11824;DHT22;5969;50.780;7.726;2023-03-14T16:10:13;6.40;99.90
11824;DHT22;5969;50.780;7.726;2023-03-14T16:12:40;6.40;99.90
11824;DHT22;5969;50.780;7.726;2023-03-14T16:15:08;6.50;99.90
11824;DHT22;5969;50.780;7.726;2023-03-14T16:17:41;6.60;99.90
11824;DHT22;5969;50.780;7.726;2023-03-14T16:20:09;6.70;99.90
11824;DHT22;5969;50.780;7.726;2023-03-14T16:22:36;6.60;99.90
11824;DHT22;5969;50.780;7.726;2023-03-14T16:25:05;6.50;99.90
11824;DHT22;5969;50.780;7.726;2023-03-14T16:27:34;6.60;99.90
11824;DHT22;5969;50.780;7.726;2023-03-14T16:30:01;6.60;99.90
11824;DHT22;5969;50.780;7.726;2023-03-14T16:32:28;6.70;99.90
11824;DHT22;5969;50.780;7.726;2023-03-14T16:34:55;6.80;99.90
11824;DHT22;5969;50.780;7.726;2023-03-14T16:37:23;6.60;99.90
11824;DHT22;5969;50.780;7.726;2023-03-14T16:39:52;6.60;99.90
11824;DHT22;5969;50.780;7.726;2023-03-14T16:42:20;6.50;99.90
11824;DHT22;5969;50.780;7.726;2023-03-14T16:44:48;6.60;99.90
11824;DHT22;5969;50.780;7.726;2023-03-14T16:47:15;6.40;99.90
11824;DHT22;5969;50.780;7.726;2023-03-14T16:49:42;6.50;99.90
11824;DHT22;5969;50.780;7.726;2023-03-14T16:52:10;6.50;99.90
11824;DHT22;5969;50.780;7.726;2023-03-14T16:54:40;6.30;99.90
11824;DHT22;5969;50.780;7.726;2023-03-14T16:57:07;6.30;99.90
11824;DHT22;5969;50.780;7.726;2023-03-14T16:59:34;6.20;99.90
11824;DHT22;5969;50.780;7.726;2023-03-14T17:02:02;6.10;99.90
11824;DHT22;5969;50.780;7.726;2023-03-14T17:04:39;6.00;99.90
11824;DHT22;5969;50.780;7.726;2023-03-14T17:07:12;6.00;99.90
11824;DHT22;5969;50.780;7.726;2023-03-14T17:09:39;5.90;99.90
11824;DHT22;5969;50.780;7.726;2023-03-14T17:12:07;5.80;99.90
11824;DHT22;5969;50.780;7.726;2023-03-14T17:14:35;5.80;99.90
11824;DHT22;5969;50.780;7.726;2023-03-14T17:17:03;5.80;99.90
11824;DHT22;5969;50.780;7.726;2023-03-14T17:19:30;5.80;99.90
11824;DHT22;5969;50.780;7.726;2023-03-14T17:22:02;5.80;99.90
11824;DHT22;5969;50.780;7.726;2023-03-14T17:24:50;5.90;99.90
11824;DHT22;5969;50.780;7.726;2023-03-14T17:27:17;5.80;99.90
11824;DHT22;5969;50.780;7.726;2023-03-14T17:30:01;5.90;99.90
11824;DHT22;5969;50.780;7.726;2023-03-14T17:32:30;5.80;99.90
11824;DHT22;5969;50.780;7.726;2023-03-14T17:34:57;5.70;99.90
11824;DHT22;5969;50.780;7.726;2023-03-14T17:38:01;5.70;99.90
11824;DHT22;5969;50.780;7.726;2023-03-14T17:40:41;5.80;99.90
11824;DHT22;5969;50.780;7.726;2023-03-14T17:43:16;5.60;99.90
11824;DHT22;5969;50.780;7.726;2023-03-14T17:45:44;5.50;99.90
11824;DHT22;5969;50.780;7.726;2023-03-14T17:48:15;5.60;99.90
11824;DHT22;5969;50.780;7.726;2023-03-14T17:50:43;5.60;99.90
11824;DHT22;5969;50.780;7.726;2023-03-14T17:53:11;5.60;99.90
11824;DHT22;5969;50.780;7.726;2023-03-14T17:55:38;5.50;99.90
11824;DHT22;5969;50.780;7.726;2023-03-14T17:58:06;5.50;99.90
11824;DHT22;5969;50.780;7.726;2023-03-14T18:00:33;5.40;99.90
11824;DHT22;5969;50.780;7.726;2023-03-14T18:02:59;5.20;99.90
11824;DHT22;5969;50.780;7.726;2023-03-14T18:05:28;5.20;99.90
11824;DHT22;5969;50.780;7.726;2023-03-14T18:07:56;5.20;99.90
11824;DHT22;5969;50.780;7.726;2023-03-14T18:10:25;5.20;99.90
11824;DHT22;5969;50.780;7.726;2023-03-14T18:12:51;5.20;99.90
11824;DHT22;5969;50.780;7.726;2023-03-14T18:15:18;5.30;99.90
11824;DHT22;5969;50.780;7.726;2023-03-14T18:17:45;5.30;99.90
11824;DHT22;5969;50.780;7.726;2023-03-14T18:20:12;5.30;99.90
11824;DHT22;5969;50.780;7.726;2023-03-14T18:22:41;5.20;99.90
11824;DHT22;5969;50.780;7.726;2023-03-14T18:25:09;5.20;99.90
11824;DHT22;5969;50.780;7.726;2023-03-14T18:27:39;5.30;99.90
11824;DHT22;5969;50.780;7.726;2023-03-14T18:30:11;5.30;99.90
11824;DHT22;5969;50.780;7.726;2023-03-14T18:32:40;5.20;99.90
11824;DHT22;5969;50.780;7.726;2023-03-14T18:35:07;5.20;99.90
11824;DHT22;5969;50.780;7.726;2023-03-14T18:37:37;5.30;99.90
11824;DHT22;5969;50.780;7.726;2023-03-14T18:40:07;5.30;99.90
11824;DHT22;5969;50.780;7.726;2023-03-14T18:42:47;5.20;99.90
11824;DHT22;5969;50.780;7.726;2023-03-14T18:45:23;5.10;99.90
11824;DHT22;5969;50.780;7.726;2023-03-14T18:48:08;5.00;99.90
11824;DHT22;5969;50.780;7.726;2023-03-14T18:50:44;5.10;99.90
11824;DHT22;5969;50.780;7.726;2023-03-14T18:53:26;4.90;99.90
11824;DHT22;5969;50.780;7.726;2023-03-14T18:56:01;5.00;99.90
11824;DHT22;5969;50.780;7.726;2023-03-14T18:58:28;5.00;99.90
11824;DHT22;5969;50.780;7.726;2023-03-14T19:01:00;5.00;99.90
11824;DHT22;5969;50.780;7.726;2023-03-14T19:03:27;5.00;99.90
11824;DHT22;5969;50.780;7.726;2023-03-14T19:05:55;5.00;99.90
11824;DHT22;5969;50.780;7.726;2023-03-14T19:08:23;5.10;99.90
11824;DHT22;5969;50.780;7.726;2023-03-14T19:10:54;5.00;99.90
11824;DHT22;5969;50.780;7.726;2023-03-14T19:13:29;5.20;99.90
11824;DHT22;5969;50.780;7.726;2023-03-14T19:15:58;5.20;99.90
11824;DHT22;5969;50.780;7.726;2023-03-14T19:18:42;5.20;99.90
11824;DHT22;5969;50.780;7.726;2023-03-14T19:21:10;5.20;99.90
11824;DHT22;5969;50.780;7.726;2023-03-14T19:23:39;5.00;99.90
11824;DHT22;5969;50.780;7.726;2023-03-14T19:26:08;5.10;99.90
11824;DHT22;5969;50.780;7.726;2023-03-14T19:28:39;5.00;99.90
11824;DHT22;5969;50.780;7.726;2023-03-14T19:31:06;5.00;99.90
11824;DHT22;5969;50.780;7.726;2023-03-14T19:33:34;5.10;99.90
11824;DHT22;5969;50.780;7.726;2023-03-14T19:36:03;5.10;99.90
11824;DHT22;5969;50.780;7.726;2023-03-14T19:38:30;5.00;99.90
11824;DHT22;5969;50.780;7.726;2023-03-14T19:40:58;5.00;99.90
11824;DHT22;5969;50.780;7.726;2023-03-14T19:43:29;5.10;99.90
11824;DHT22;5969;50.780;7.726;2023-03-14T19:45:58;5.00;99.90
11824;DHT22;5969;50.780;7.726;2023-03-14T19:48:25;5.00;99.90
11824;DHT22;5969;50.780;7.726;2023-03-14T19:50:54;5.00;99.90
11824;DHT22;5969;50.780;7.726;2023-03-14T19:53:21;5.10;99.90
11824;DHT22;5969;50.780;7.726;2023-03-14T19:55:53;5.10;99.90
11824;DHT22;5969;50.780;7.726;2023-03-14T19:58:22;5.00;99.90
11824;DHT22;5969;50.780;7.726;2023-03-14T20:00:51;5.00;99.90
11824;DHT22;5969;50.780;7.726;2023-03-14T20:03:24;4.90;99.90